sensor_id;sensor_type;location;lat;lon;timestamp;pressure;altitude;pressure_sealevel;temperature;humidity
44131;BME280;29792;48.726;9.248;2023-07-20T00:01:12;96795.34;;;20.59;58.22
44131;BME280;29792;48.726;9.248;2023-07-20T00:03:37;96795.91;;;20.54;58.91
44131;BME280;29792;48.726;9.248;2023-07-20T00:06:03;96795.66;;;20.49;58.50
44131;BME280;29792;48.726;9.248;2023-07-20T00:08:29;96803.84;;;20.46;58.44
44131;BME280;29792;48.726;9.248;2023-07-20T00:10:55;96796.41;;;20.43;58.39
44131;BME280;29792;48.726;9.248;2023-07-20T00:13:20;96797.16;;;20.37;58.22
44131;BME280;29792;48.726;9.248;2023-07-20T00:15:46;96803.59;;;20.35;58.34
44131;BME280;29792;48.726;9.248;2023-07-20T00:18:11;96793.69;;;20.30;57.44
44131;BME280;29792;48.726;9.248;2023-07-20T00:20:36;96797.69;;;20.26;57.26
44131;BME280;29792;48.726;9.248;2023-07-20T00:23:02;96801.63;;;20.22;57.15
44131;BME280;29792;48.726;9.248;2023-07-20T00:25:27;96799.63;;;20.17;56.79
44131;BME280;29792;48.726;9.248;2023-07-20T00:27:52;96793.34;;;20.12;56.74
44131;BME280;29792;48.726;9.248;2023-07-20T00:30:18;96796.88;;;20.04;56.48
44131;BME280;29792;48.726;9.248;2023-07-20T00:32:43;96785.81;;;19.96;55.94
44131;BME280;29792;48.726;9.248;2023-07-20T00:35:09;96795.34;;;19.89;56.57
44131;BME280;29792;48.726;9.248;2023-07-20T00:37:36;96790.72;;;19.84;56.94
44131;BME280;29792;48.726;9.248;2023-07-20T00:40:01;96792.44;;;19.77;56.59
44131;BME280;29792;48.726;9.248;2023-07-20T00:42:29;96795.59;;;19.72;56.60
44131;BME280;29792;48.726;9.248;2023-07-20T00:44:54;96793.56;;;19.68;56.80
44131;BME280;29792;48.726;9.248;2023-07-20T00:47:19;96790.69;;;19.63;57.13
44131;BME280;29792;48.726;9.248;2023-07-20T00:49:45;96786.88;;;19.59;57.00
44131;BME280;29792;48.726;9.248;2023-07-20T00:52:13;96793.41;;;19.55;57.23
44131;BME280;29792;48.726;9.248;2023-07-20T00:54:39;96793.97;;;19.50;57.03
44131;BME280;29792;48.726;9.248;2023-07-20T00:57:07;96801.28;;;19.47;57.10
44131;BME280;29792;48.726;9.248;2023-07-20T00:59:32;96796.03;;;19.40;57.60
44131;BME280;29792;48.726;9.248;2023-07-20T01:01:57;96797.38;;;19.36;57.86
44131;BME280;29792;48.726;9.248;2023-07-20T01:04:23;96801.31;;;19.32;57.28
44131;BME280;29792;48.726;9.248;2023-07-20T01:06:57;96798.84;;;19.24;58.17
44131;BME280;29792;48.726;9.248;2023-07-20T01:12:29;96802.50;;;19.15;58.41
44131;BME280;29792;48.726;9.248;2023-07-20T01:14:55;96791.06;;;19.09;59.51
44131;BME280;29792;48.726;9.248;2023-07-20T01:17:21;96796.19;;;19.02;59.67
44131;BME280;29792;48.726;9.248;2023-07-20T01:19:46;96791.72;;;18.96;59.82
44131;BME280;29792;48.726;9.248;2023-07-20T01:30:26;96793.50;;;18.81;60.74
44131;BME280;29792;48.726;9.248;2023-07-20T01:32:55;96796.28;;;18.80;60.75
44131;BME280;29792;48.726;9.248;2023-07-20T01:35:23;96796.47;;;18.78;60.90
44131;BME280;29792;48.726;9.248;2023-07-20T01:37:53;96798.59;;;18.75;61.38
44131;BME280;29792;48.726;9.248;2023-07-20T01:40:19;96798.78;;;18.73;61.80
44131;BME280;29792;48.726;9.248;2023-07-20T01:42:45;96796.56;;;18.70;61.93
44131;BME280;29792;48.726;9.248;2023-07-20T01:45:11;96796.72;;;18.68;62.59
44131;BME280;29792;48.726;9.248;2023-07-20T01:47:36;96793.66;;;18.65;62.60
44131;BME280;29792;48.726;9.248;2023-07-20T01:50:02;96790.66;;;18.61;62.61
44131;BME280;29792;48.726;9.248;2023-07-20T01:52:27;96791.97;;;18.57;62.71
44131;BME280;29792;48.726;9.248;2023-07-20T01:54:52;96794.91;;;18.54;63.17
44131;BME280;29792;48.726;9.248;2023-07-20T01:57:18;96789.09;;;18.52;63.02
44131;BME280;29792;48.726;9.248;2023-07-20T01:59:43;96793.81;;;18.49;63.14
44131;BME280;29792;48.726;9.248;2023-07-20T02:02:08;96790.59;;;18.47;63.35
44131;BME280;29792;48.726;9.248;2023-07-20T02:04:34;96783.97;;;18.44;63.32
44131;BME280;29792;48.726;9.248;2023-07-20T02:06:59;96795.50;;;18.42;63.53
44131;BME280;29792;48.726;9.248;2023-07-20T02:09:25;96787.28;;;18.38;63.42
44131;BME280;29792;48.726;9.248;2023-07-20T02:11:50;96795.41;;;18.35;63.49
44131;BME280;29792;48.726;9.248;2023-07-20T02:14:16;96798.38;;;18.32;63.09
44131;BME280;29792;48.726;9.248;2023-07-20T02:16:41;96803.09;;;18.28;63.71
44131;BME280;29792;48.726;9.248;2023-07-20T02:19:06;96803.25;;;18.27;63.13
44131;BME280;29792;48.726;9.248;2023-07-20T02:21:32;96798.44;;;18.24;63.53
44131;BME280;29792;48.726;9.248;2023-07-20T02:23:57;96799.59;;;18.21;63.72
44131;BME280;29792;48.726;9.248;2023-07-20T02:26:23;96793.13;;;18.17;64.22
44131;BME280;29792;48.726;9.248;2023-07-20T02:28:48;96786.88;;;18.12;63.77
44131;BME280;29792;48.726;9.248;2023-07-20T02:31:13;96796.97;;;18.07;64.13
44131;BME280;29792;48.726;9.248;2023-07-20T02:33:39;96792.28;;;18.02;64.36
44131;BME280;29792;48.726;9.248;2023-07-20T02:36:04;96797.84;;;17.99;64.57
44131;BME280;29792;48.726;9.248;2023-07-20T02:38:29;96786.03;;;17.97;64.64
44131;BME280;29792;48.726;9.248;2023-07-20T02:40:54;96793.34;;;17.93;64.93
44131;BME280;29792;48.726;9.248;2023-07-20T02:43:20;96795.47;;;17.89;65.19
44131;BME280;29792;48.726;9.248;2023-07-20T02:45:45;96795.66;;;17.88;64.93
44131;BME280;29792;48.726;9.248;2023-07-20T02:48:10;96802.94;;;17.84;64.92
44131;BME280;29792;48.726;9.248;2023-07-20T02:50:35;96806.72;;;17.82;65.08
44131;BME280;29792;48.726;9.248;2023-07-20T02:53:01;96809.47;;;17.80;65.17
44131;BME280;29792;48.726;9.248;2023-07-20T02:55:27;96801.22;;;17.77;65.08
44131;BME280;29792;48.726;9.248;2023-07-20T02:57:52;96803.81;;;17.77;65.39
44131;BME280;29792;48.726;9.248;2023-07-20T03:00:17;96812.56;;;17.76;65.50
44131;BME280;29792;48.726;9.248;2023-07-20T03:02:44;96806.78;;;17.74;65.88
44131;BME280;29792;48.726;9.248;2023-07-20T03:05:13;96818.13;;;17.73;65.58
44131;BME280;29792;48.726;9.248;2023-07-20T03:07:38;96820.06;;;17.71;65.23
44131;BME280;29792;48.726;9.248;2023-07-20T03:10:05;96815.84;;;17.70;65.87
44131;BME280;29792;48.726;9.248;2023-07-20T03:12:32;96819.41;;;17.69;65.61
44131;BME280;29792;48.726;9.248;2023-07-20T03:14:59;96812.00;;;17.66;66.28
44131;BME280;29792;48.726;9.248;2023-07-20T03:17:24;96813.97;;;17.64;66.54
44131;BME280;29792;48.726;9.248;2023-07-20T03:19:49;96808.94;;;17.62;66.95
44131;BME280;29792;48.726;9.248;2023-07-20T03:22:15;96808.13;;;17.62;67.54
44131;BME280;29792;48.726;9.248;2023-07-20T03:24:40;96809.06;;;17.61;67.72
44131;BME280;29792;48.726;9.248;2023-07-20T03:27:05;96812.63;;;17.60;67.28
44131;BME280;29792;48.726;9.248;2023-07-20T03:29:32;96815.59;;;17.57;67.55
44131;BME280;29792;48.726;9.248;2023-07-20T03:31:59;96814.13;;;17.54;67.68
44131;BME280;29792;48.726;9.248;2023-07-20T03:34:24;96813.50;;;17.52;67.04
44131;BME280;29792;48.726;9.248;2023-07-20T03:36:50;96825.03;;;17.49;67.25
44131;BME280;29792;48.726;9.248;2023-07-20T03:39:15;96825.53;;;17.45;67.54
44131;BME280;29792;48.726;9.248;2023-07-20T03:41:40;96828.09;;;17.45;67.65
44131;BME280;29792;48.726;9.248;2023-07-20T03:44:05;96829.44;;;17.41;67.60
44131;BME280;29792;48.726;9.248;2023-07-20T03:46:31;96832.34;;;17.38;67.89
44131;BME280;29792;48.726;9.248;2023-07-20T03:48:56;96829.31;;;17.34;68.01
44131;BME280;29792;48.726;9.248;2023-07-20T03:51:21;96820.91;;;17.32;67.81
44131;BME280;29792;48.726;9.248;2023-07-20T03:53:46;96826.25;;;17.31;68.60
44131;BME280;29792;48.726;9.248;2023-07-20T03:56:12;96817.84;;;17.29;68.38
44131;BME280;29792;48.726;9.248;2023-07-20T03:58:37;96817.03;;;17.28;68.90
44131;BME280;29792;48.726;9.248;2023-07-20T04:01:03;96826.94;;;17.25;69.33
44131;BME280;29792;48.726;9.248;2023-07-20T04:03:28;96829.69;;;17.23;68.88
44131;BME280;29792;48.726;9.248;2023-07-20T04:05:54;96834.06;;;17.23;69.34
44131;BME280;29792;48.726;9.248;2023-07-20T04:08:22;96831.78;;;17.20;69.41
44131;BME280;29792;48.726;9.248;2023-07-20T04:10:47;96831.78;;;17.20;69.94
44131;BME280;29792;48.726;9.248;2023-07-20T04:13:12;96836.16;;;17.19;70.38
44131;BME280;29792;48.726;9.248;2023-07-20T04:15:38;96833.41;;;17.21;72.46
44131;BME280;29792;48.726;9.248;2023-07-20T04:18:03;96837.44;;;17.23;74.29
44131;BME280;29792;48.726;9.248;2023-07-20T04:20:29;96842.63;;;17.23;72.97
44131;BME280;29792;48.726;9.248;2023-07-20T04:22:54;96843.44;;;17.24;72.91
44131;BME280;29792;48.726;9.248;2023-07-20T04:25:20;96838.09;;;17.25;73.84
44131;BME280;29792;48.726;9.248;2023-07-20T04:27:45;96841.28;;;17.27;73.02
44131;BME280;29792;48.726;9.248;2023-07-20T04:30:11;96842.09;;;17.28;72.96
44131;BME280;29792;48.726;9.248;2023-07-20T04:32:37;96829.97;;;17.28;73.47
44131;BME280;29792;48.726;9.248;2023-07-20T04:35:06;96834.81;;;17.31;73.40
44131;BME280;29792;48.726;9.248;2023-07-20T04:37:32;96840.47;;;17.35;73.48
44131;BME280;29792;48.726;9.248;2023-07-20T04:39:58;96843.53;;;17.38;73.75
44131;BME280;29792;48.726;9.248;2023-07-20T04:42:23;96842.56;;;17.39;74.08
44131;BME280;29792;48.726;9.248;2023-07-20T04:44:48;96838.81;;;17.42;73.46
44131;BME280;29792;48.726;9.248;2023-07-20T04:47:14;96835.44;;;17.41;73.28
44131;BME280;29792;48.726;9.248;2023-07-20T04:49:39;96835.06;;;17.44;73.67
44131;BME280;29792;48.726;9.248;2023-07-20T04:52:04;96838.31;;;17.46;73.24
44131;BME280;29792;48.726;9.248;2023-07-20T04:54:30;96840.56;;;17.49;73.21
44131;BME280;29792;48.726;9.248;2023-07-20T04:56:55;96840.22;;;17.52;73.01
44131;BME280;29792;48.726;9.248;2023-07-20T04:59:20;96836.47;;;17.55;73.51
44131;BME280;29792;48.726;9.248;2023-07-20T05:01:45;96843.72;;;17.60;73.64
44131;BME280;29792;48.726;9.248;2023-07-20T05:04:14;96835.66;;;17.63;74.21
44131;BME280;29792;48.726;9.248;2023-07-20T05:06:39;96847.09;;;17.68;74.50
44131;BME280;29792;48.726;9.248;2023-07-20T05:09:05;96856.97;;;17.73;74.62
44131;BME280;29792;48.726;9.248;2023-07-20T05:11:32;96840.28;;;17.75;75.16
44131;BME280;29792;48.726;9.248;2023-07-20T05:13:58;96845.91;;;17.79;74.10
44131;BME280;29792;48.726;9.248;2023-07-20T05:16:23;96847.22;;;17.83;74.33
44131;BME280;29792;48.726;9.248;2023-07-20T05:18:48;96846.03;;;17.85;73.25
44131;BME280;29792;48.726;9.248;2023-07-20T05:21:13;96844.91;;;17.88;73.62
44131;BME280;29792;48.726;9.248;2023-07-20T05:23:39;96847.97;;;17.91;73.12
44131;BME280;29792;48.726;9.248;2023-07-20T05:26:04;96834.00;;;17.92;72.40
44131;BME280;29792;48.726;9.248;2023-07-20T05:28:29;96843.88;;;17.97;72.81
44131;BME280;29792;48.726;9.248;2023-07-20T05:30:55;96846.72;;;18.02;73.35
44131;BME280;29792;48.726;9.248;2023-07-20T05:33:21;96842.81;;;18.06;72.80
44131;BME280;29792;48.726;9.248;2023-07-20T05:35:47;96838.09;;;18.10;73.31
44131;BME280;29792;48.726;9.248;2023-07-20T05:38:12;96850.38;;;18.16;73.89
44131;BME280;29792;48.726;9.248;2023-07-20T05:40:40;96842.22;;;18.19;73.18
44131;BME280;29792;48.726;9.248;2023-07-20T05:43:06;96841.72;;;18.23;73.38
44131;BME280;29792;48.726;9.248;2023-07-20T05:45:31;96843.63;;;18.29;73.92
44131;BME280;29792;48.726;9.248;2023-07-20T05:47:56;96843.06;;;18.34;73.64
44131;BME280;29792;48.726;9.248;2023-07-20T05:50:22;96844.19;;;18.40;72.72
44131;BME280;29792;48.726;9.248;2023-07-20T05:52:47;96841.22;;;18.43;71.96
44131;BME280;29792;48.726;9.248;2023-07-20T05:55:13;96843.28;;;18.47;71.85
44131;BME280;29792;48.726;9.248;2023-07-20T05:57:38;96853.13;;;18.52;72.16
44131;BME280;29792;48.726;9.248;2023-07-20T06:00:07;96846.63;;;18.56;72.83
44131;BME280;29792;48.726;9.248;2023-07-20T06:02:33;96849.69;;;18.59;72.29
44131;BME280;29792;48.726;9.248;2023-07-20T06:04:58;96845.78;;;18.63;72.22
44131;BME280;29792;48.726;9.248;2023-07-20T06:07:23;96852.19;;;18.67;71.77
44131;BME280;29792;48.726;9.248;2023-07-20T06:09:49;96849.44;;;18.69;71.22
44131;BME280;29792;48.726;9.248;2023-07-20T06:12:14;96852.50;;;18.73;71.24
44131;BME280;29792;48.726;9.248;2023-07-20T06:14:39;96855.53;;;18.76;71.60
44131;BME280;29792;48.726;9.248;2023-07-20T06:17:05;96857.59;;;18.81;71.51
44131;BME280;29792;48.726;9.248;2023-07-20T06:19:30;96862.25;;;18.85;71.94
44131;BME280;29792;48.726;9.248;2023-07-20T06:21:55;96858.50;;;18.88;71.64
44131;BME280;29792;48.726;9.248;2023-07-20T06:24:20;96859.91;;;18.90;70.39
44131;BME280;29792;48.726;9.248;2023-07-20T06:26:46;96856.00;;;18.94;70.60
44131;BME280;29792;48.726;9.248;2023-07-20T06:29:11;96861.44;;;18.99;70.34
44131;BME280;29792;48.726;9.248;2023-07-20T06:31:37;96861.72;;;19.04;71.01
44131;BME280;29792;48.726;9.248;2023-07-20T06:34:03;96858.59;;;19.09;70.73
44131;BME280;29792;48.726;9.248;2023-07-20T06:36:28;96855.44;;;19.14;70.63
44131;BME280;29792;48.726;9.248;2023-07-20T06:38:54;96856.69;;;19.18;69.54
44131;BME280;29792;48.726;9.248;2023-07-20T06:41:19;96846.78;;;19.21;69.17
44131;BME280;29792;48.726;9.248;2023-07-20T06:43:45;96849.63;;;19.26;69.09
44131;BME280;29792;48.726;9.248;2023-07-20T06:46:10;96859.47;;;19.31;69.37
44131;BME280;29792;48.726;9.248;2023-07-20T06:48:36;96845.13;;;19.35;69.09
44131;BME280;29792;48.726;9.248;2023-07-20T06:51:01;96854.97;;;19.39;69.07
44131;BME280;29792;48.726;9.248;2023-07-20T06:53:28;96857.84;;;19.44;68.71
44131;BME280;29792;48.726;9.248;2023-07-20T06:55:53;96857.13;;;19.51;68.91
44131;BME280;29792;48.726;9.248;2023-07-20T06:58:18;96859.63;;;19.59;69.40
44131;BME280;29792;48.726;9.248;2023-07-20T07:00:44;96860.50;;;19.66;70.61
44131;BME280;29792;48.726;9.248;2023-07-20T07:03:10;96862.38;;;19.72;70.25
44131;BME280;29792;48.726;9.248;2023-07-20T07:05:36;96865.03;;;19.78;69.61
44131;BME280;29792;48.726;9.248;2023-07-20T07:08:02;96855.25;;;19.80;68.20
44131;BME280;29792;48.726;9.248;2023-07-20T07:10:27;96859.28;;;19.83;67.42
44131;BME280;29792;48.726;9.248;2023-07-20T07:12:53;96846.94;;;19.85;68.40
44131;BME280;29792;48.726;9.248;2023-07-20T07:15:18;96846.34;;;19.90;68.08
44131;BME280;29792;48.726;9.248;2023-07-20T07:17:43;96847.22;;;19.97;68.56
44131;BME280;29792;48.726;9.248;2023-07-20T07:20:09;96849.47;;;20.00;68.39
44131;BME280;29792;48.726;9.248;2023-07-20T07:22:34;96843.69;;;20.04;67.80
44131;BME280;29792;48.726;9.248;2023-07-20T07:24:59;96839.75;;;20.08;67.60
44131;BME280;29792;48.726;9.248;2023-07-20T07:27:25;96842.59;;;20.13;67.09
44131;BME280;29792;48.726;9.248;2023-07-20T07:29:50;96837.63;;;20.18;66.79
44131;BME280;29792;48.726;9.248;2023-07-20T07:32:15;96838.28;;;20.27;66.77
44131;BME280;29792;48.726;9.248;2023-07-20T07:34:41;96836.03;;;20.39;67.70
44131;BME280;29792;48.726;9.248;2023-07-20T07:37:06;96840.50;;;20.51;67.07
44131;BME280;29792;48.726;9.248;2023-07-20T07:39:31;96841.78;;;20.62;66.38
44131;BME280;29792;48.726;9.248;2023-07-20T07:41:57;96837.06;;;20.72;66.14
44131;BME280;29792;48.726;9.248;2023-07-20T07:44:23;96836.34;;;20.85;65.93
44131;BME280;29792;48.726;9.248;2023-07-20T07:46:48;96838.22;;;20.98;65.29
44131;BME280;29792;48.726;9.248;2023-07-20T07:49:14;96836.28;;;21.06;64.62
44131;BME280;29792;48.726;9.248;2023-07-20T07:51:39;96827.69;;;21.12;64.50
44131;BME280;29792;48.726;9.248;2023-07-20T07:54:04;96829.53;;;21.18;64.01
44131;BME280;29792;48.726;9.248;2023-07-20T07:56:30;96831.59;;;21.29;64.12
44131;BME280;29792;48.726;9.248;2023-07-20T07:58:55;96839.88;;;21.40;63.77
44131;BME280;29792;48.726;9.248;2023-07-20T08:01:20;96836.69;;;21.51;63.58
44131;BME280;29792;48.726;9.248;2023-07-20T08:03:46;96836.94;;;21.62;63.17
44131;BME280;29792;48.726;9.248;2023-07-20T08:06:15;96831.34;;;21.72;62.73
44131;BME280;29792;48.726;9.248;2023-07-20T08:08:41;96837.97;;;21.81;62.89
44131;BME280;29792;48.726;9.248;2023-07-20T08:11:07;96841.38;;;21.82;61.64
44131;BME280;29792;48.726;9.248;2023-07-20T08:13:33;96830.75;;;21.83;61.84
44131;BME280;29792;48.726;9.248;2023-07-20T08:15:58;96826.94;;;21.92;63.24
44131;BME280;29792;48.726;9.248;2023-07-20T08:18:24;96824.00;;;22.02;63.87
44131;BME280;29792;48.726;9.248;2023-07-20T08:20:49;96827.22;;;22.11;62.66
44131;BME280;29792;48.726;9.248;2023-07-20T08:23:15;96827.03;;;22.12;61.76
44131;BME280;29792;48.726;9.248;2023-07-20T08:25:41;96828.41;;;22.15;62.30
44131;BME280;29792;48.726;9.248;2023-07-20T08:28:10;96833.03;;;22.19;62.48
44131;BME280;29792;48.726;9.248;2023-07-20T08:33:07;96824.00;;;22.22;60.51
44131;BME280;29792;48.726;9.248;2023-07-20T08:35:33;96826.22;;;22.25;61.67
44131;BME280;29792;48.726;9.248;2023-07-20T08:37:58;96832.44;;;22.30;60.98
44131;BME280;29792;48.726;9.248;2023-07-20T08:40:24;96814.19;;;22.37;59.73
44131;BME280;29792;48.726;9.248;2023-07-20T08:42:49;96815.16;;;22.49;60.76
44131;BME280;29792;48.726;9.248;2023-07-20T08:45:16;96829.63;;;22.58;58.22
44131;BME280;29792;48.726;9.248;2023-07-20T08:47:42;96825.38;;;22.70;60.09
44131;BME280;29792;48.726;9.248;2023-07-20T08:50:09;96820.75;;;22.79;57.83
44131;BME280;29792;48.726;9.248;2023-07-20T08:52:36;96822.16;;;22.88;55.91
44131;BME280;29792;48.726;9.248;2023-07-20T08:55:01;96820.75;;;22.92;55.92
44131;BME280;29792;48.726;9.248;2023-07-20T08:57:30;96824.16;;;22.93;54.78
44131;BME280;29792;48.726;9.248;2023-07-20T09:00:04;96830.19;;;22.87;54.17
44131;BME280;29792;48.726;9.248;2023-07-20T09:02:38;96818.16;;;22.79;54.97
44131;BME280;29792;48.726;9.248;2023-07-20T09:05:06;96820.59;;;22.74;56.18
44131;BME280;29792;48.726;9.248;2023-07-20T09:07:32;96820.16;;;22.70;56.26
44131;BME280;29792;48.726;9.248;2023-07-20T09:09:58;96820.75;;;22.72;57.92
44131;BME280;29792;48.726;9.248;2023-07-20T09:12:23;96815.78;;;22.77;58.80
44131;BME280;29792;48.726;9.248;2023-07-20T09:14:49;96820.97;;;22.84;58.11
44131;BME280;29792;48.726;9.248;2023-07-20T09:17:14;96821.72;;;22.98;58.75
44131;BME280;29792;48.726;9.248;2023-07-20T09:19:47;96823.69;;;23.15;58.05
44131;BME280;29792;48.726;9.248;2023-07-20T09:22:13;96818.59;;;23.27;56.76
44131;BME280;29792;48.726;9.248;2023-07-20T09:24:38;96814.19;;;23.34;55.29
44131;BME280;29792;48.726;9.248;2023-07-20T09:27:04;96819.38;;;23.41;54.59
44131;BME280;29792;48.726;9.248;2023-07-20T09:29:29;96808.72;;;23.42;55.46
44131;BME280;29792;48.726;9.248;2023-07-20T09:32:02;96812.53;;;23.40;54.21
44131;BME280;29792;48.726;9.248;2023-07-20T09:34:31;96812.56;;;23.33;53.49
44131;BME280;29792;48.726;9.248;2023-07-20T09:36:57;96813.38;;;23.27;54.02
44131;BME280;29792;48.726;9.248;2023-07-20T09:39:23;96814.63;;;23.25;55.35
44131;BME280;29792;48.726;9.248;2023-07-20T09:41:48;96811.38;;;23.29;55.45
44131;BME280;29792;48.726;9.248;2023-07-20T09:44:14;96811.72;;;23.39;53.84
44131;BME280;29792;48.726;9.248;2023-07-20T09:46:47;96815.31;;;23.51;54.37
44131;BME280;29792;48.726;9.248;2023-07-20T09:49:13;96816.09;;;23.58;54.84
44131;BME280;29792;48.726;9.248;2023-07-20T09:51:40;96810.44;;;23.62;54.63
44131;BME280;29792;48.726;9.248;2023-07-20T09:54:06;96813.25;;;23.60;52.62
44131;BME280;29792;48.726;9.248;2023-07-20T09:56:32;96802.63;;;23.55;50.85
44131;BME280;29792;48.726;9.248;2023-07-20T09:58:58;96812.72;;;23.45;50.84
44131;BME280;29792;48.726;9.248;2023-07-20T10:01:23;96812.13;;;23.36;51.84
44131;BME280;29792;48.726;9.248;2023-07-20T10:03:51;96811.38;;;23.29;51.60
44131;BME280;29792;48.726;9.248;2023-07-20T10:06:21;96813.19;;;23.29;53.54
44131;BME280;29792;48.726;9.248;2023-07-20T10:08:50;96803.50;;;23.36;55.64
44131;BME280;29792;48.726;9.248;2023-07-20T10:11:17;96797.44;;;23.42;54.80
44131;BME280;29792;48.726;9.248;2023-07-20T10:13:44;96804.47;;;23.48;54.15
44131;BME280;29792;48.726;9.248;2023-07-20T10:16:15;96804.59;;;23.59;54.12
44131;BME280;29792;48.726;9.248;2023-07-20T10:19:06;96787.03;;;23.73;55.00
44131;BME280;29792;48.726;9.248;2023-07-20T10:21:34;96786.53;;;23.89;53.70
44131;BME280;29792;48.726;9.248;2023-07-20T10:24:01;96778.16;;;24.06;54.45
44131;BME280;29792;48.726;9.248;2023-07-20T10:26:27;96780.47;;;24.20;52.64
44131;BME280;29792;48.726;9.248;2023-07-20T10:28:53;96775.72;;;24.36;52.68
44131;BME280;29792;48.726;9.248;2023-07-20T10:31:19;96769.56;;;24.48;52.29
44131;BME280;29792;48.726;9.248;2023-07-20T10:33:45;96758.94;;;24.61;51.78
44131;BME280;29792;48.726;9.248;2023-07-20T10:36:11;96765.31;;;24.72;51.29
44131;BME280;29792;48.726;9.248;2023-07-20T10:41:28;96764.41;;;24.78;50.67
44131;BME280;29792;48.726;9.248;2023-07-20T10:44:03;96766.88;;;24.73;50.14
44131;BME280;29792;48.726;9.248;2023-07-20T10:46:49;96764.53;;;24.65;49.74
44131;BME280;29792;48.726;9.248;2023-07-20T10:49:15;96766.53;;;24.69;51.36
44131;BME280;29792;48.726;9.248;2023-07-20T10:51:48;96756.34;;;24.80;52.10
44131;BME280;29792;48.726;9.248;2023-07-20T10:56:42;96747.97;;;25.07;51.08
44131;BME280;29792;48.726;9.248;2023-07-20T11:01:48;96752.50;;;25.30;49.13
44131;BME280;29792;48.726;9.248;2023-07-20T11:04:16;96750.03;;;25.35;50.88
44131;BME280;29792;48.726;9.248;2023-07-20T11:06:44;96746.53;;;25.41;50.80
44131;BME280;29792;48.726;9.248;2023-07-20T11:09:11;96738.56;;;25.48;48.79
44131;BME280;29792;48.726;9.248;2023-07-20T11:11:43;96734.25;;;25.54;47.72
44131;BME280;29792;48.726;9.248;2023-07-20T11:14:25;96746.84;;;25.63;48.42
44131;BME280;29792;48.726;9.248;2023-07-20T11:16:52;96741.53;;;25.70;47.11
44131;BME280;29792;48.726;9.248;2023-07-20T11:19:25;96743.78;;;25.66;45.99
44131;BME280;29792;48.726;9.248;2023-07-20T11:21:55;96743.41;;;25.63;44.64
44131;BME280;29792;48.726;9.248;2023-07-20T11:24:20;96738.63;;;25.60;43.93
44131;BME280;29792;48.726;9.248;2023-07-20T11:26:50;96740.56;;;25.64;43.97
44131;BME280;29792;48.726;9.248;2023-07-20T11:29:17;96738.09;;;25.69;45.66
44131;BME280;29792;48.726;9.248;2023-07-20T11:31:44;96735.59;;;25.74;46.29
44131;BME280;29792;48.726;9.248;2023-07-20T11:34:14;96744.59;;;25.78;45.20
44131;BME280;29792;48.726;9.248;2023-07-20T11:36:41;96731.84;;;25.82;47.10
44131;BME280;29792;48.726;9.248;2023-07-20T11:39:10;96734.34;;;25.89;45.58
44131;BME280;29792;48.726;9.248;2023-07-20T11:41:36;96735.41;;;25.99;46.64
44131;BME280;29792;48.726;9.248;2023-07-20T11:44:02;96729.72;;;26.02;44.33
44131;BME280;29792;48.726;9.248;2023-07-20T11:46:28;96730.03;;;26.06;44.22
44131;BME280;29792;48.726;9.248;2023-07-20T11:48:58;96728.56;;;26.10;43.19
44131;BME280;29792;48.726;9.248;2023-07-20T11:51:28;96725.94;;;26.10;43.49
44131;BME280;29792;48.726;9.248;2023-07-20T11:53:54;96724.13;;;26.10;43.83
44131;BME280;29792;48.726;9.248;2023-07-20T11:56:19;96726.16;;;26.08;42.54
44131;BME280;29792;48.726;9.248;2023-07-20T11:58:45;96727.63;;;26.04;42.70
44131;BME280;29792;48.726;9.248;2023-07-20T12:01:14;96720.44;;;26.00;43.24
44131;BME280;29792;48.726;9.248;2023-07-20T12:03:41;96711.31;;;25.91;42.97
44131;BME280;29792;48.726;9.248;2023-07-20T12:06:07;96714.63;;;25.86;42.92
44131;BME280;29792;48.726;9.248;2023-07-20T12:08:33;96709.13;;;25.88;44.34
44131;BME280;29792;48.726;9.248;2023-07-20T12:10:58;96702.41;;;25.92;43.31
44131;BME280;29792;48.726;9.248;2023-07-20T12:13:24;96705.13;;;25.97;42.38
44131;BME280;29792;48.726;9.248;2023-07-20T12:16:06;96699.09;;;26.08;44.00
44131;BME280;29792;48.726;9.248;2023-07-20T12:18:37;96697.75;;;26.17;42.88
44131;BME280;29792;48.726;9.248;2023-07-20T12:21:02;96699.88;;;26.20;43.52
44131;BME280;29792;48.726;9.248;2023-07-20T12:23:35;96698.78;;;26.28;43.98
44131;BME280;29792;48.726;9.248;2023-07-20T12:26:01;96702.88;;;26.35;43.53
44131;BME280;29792;48.726;9.248;2023-07-20T12:28:27;96693.06;;;26.42;42.13
44131;BME280;29792;48.726;9.248;2023-07-20T12:30:52;96689.75;;;26.47;42.75
44131;BME280;29792;48.726;9.248;2023-07-20T12:33:22;96684.84;;;26.50;42.19
44131;BME280;29792;48.726;9.248;2023-07-20T12:35:48;96688.81;;;26.53;42.29
44131;BME280;29792;48.726;9.248;2023-07-20T12:38:13;96685.16;;;26.54;42.36
44131;BME280;29792;48.726;9.248;2023-07-20T12:40:38;96690.31;;;26.49;41.82
44131;BME280;29792;48.726;9.248;2023-07-20T12:43:04;96679.00;;;26.48;42.81
44131;BME280;29792;48.726;9.248;2023-07-20T12:45:29;96691.00;;;26.56;42.92
44131;BME280;29792;48.726;9.248;2023-07-20T12:47:55;96677.41;;;26.59;41.12
44131;BME280;29792;48.726;9.248;2023-07-20T12:50:20;96680.03;;;26.59;40.07
44131;BME280;29792;48.726;9.248;2023-07-20T12:52:45;96672.91;;;26.59;40.08
44131;BME280;29792;48.726;9.248;2023-07-20T12:55:11;96675.75;;;26.70;42.04
44131;BME280;29792;48.726;9.248;2023-07-20T12:57:37;96669.31;;;26.77;40.46
44131;BME280;29792;48.726;9.248;2023-07-20T13:00:04;96673.56;;;26.78;40.19
44131;BME280;29792;48.726;9.248;2023-07-20T13:02:32;96670.47;;;26.81;40.34
44131;BME280;29792;48.726;9.248;2023-07-20T13:04:57;96667.34;;;26.84;41.58
44131;BME280;29792;48.726;9.248;2023-07-20T13:07:30;96662.66;;;26.86;40.09
44131;BME280;29792;48.726;9.248;2023-07-20T13:09:57;96662.22;;;26.89;39.57
44131;BME280;29792;48.726;9.248;2023-07-20T13:12:24;96656.28;;;26.94;40.11
44131;BME280;29792;48.726;9.248;2023-07-20T13:14:51;96656.38;;;26.99;40.61
44131;BME280;29792;48.726;9.248;2023-07-20T13:17:16;96659.31;;;27.03;40.89